sensor_id;sensor_type;location;lat;lon;timestamp;P1;durP1;ratioP1;P2;durP2;ratioP2
5412;SDS011;2729;50.056;8.678;2022-11-28T00:00:26;11.87;;;5.80;;
5412;SDS011;2729;50.056;8.678;2022-11-28T00:02:53;9.40;;;5.67;;
5412;SDS011;2729;50.056;8.678;2022-11-28T00:05:18;8.90;;;5.50;;
5412;SDS011;2729;50.056;8.678;2022-11-28T00:07:44;8.13;;;5.50;;
5412;SDS011;2729;50.056;8.678;2022-11-28T00:10:10;8.47;;;5.40;;
5412;SDS011;2729;50.056;8.678;2022-11-28T00:12:37;9.43;;;5.07;;
5412;SDS011;2729;50.056;8.678;2022-11-28T00:15:03;7.60;;;5.37;;
5412;SDS011;2729;50.056;8.678;2022-11-28T00:17:30;7.40;;;5.63;;
5412;SDS011;2729;50.056;8.678;2022-11-28T00:19:56;9.40;;;5.00;;
5412;SDS011;2729;50.056;8.678;2022-11-28T00:22:22;8.13;;;4.97;;
5412;SDS011;2729;50.056;8.678;2022-11-28T00:24:48;6.40;;;4.67;;
5412;SDS011;2729;50.056;8.678;2022-11-28T00:27:14;8.57;;;5.03;;
5412;SDS011;2729;50.056;8.678;2022-11-28T00:29:40;7.00;;;4.53;;
5412;SDS011;2729;50.056;8.678;2022-11-28T00:32:05;6.33;;;4.53;;
5412;SDS011;2729;50.056;8.678;2022-11-28T00:34:31;9.10;;;5.67;;
5412;SDS011;2729;50.056;8.678;2022-11-28T00:36:57;10.60;;;5.47;;
5412;SDS011;2729;50.056;8.678;2022-11-28T00:39:23;9.80;;;4.83;;
5412;SDS011;2729;50.056;8.678;2022-11-28T00:41:49;10.40;;;5.97;;
5412;SDS011;2729;50.056;8.678;2022-11-28T00:44:15;8.43;;;4.90;;
5412;SDS011;2729;50.056;8.678;2022-11-28T00:46:41;6.77;;;4.93;;
5412;SDS011;2729;50.056;8.678;2022-11-28T00:49:08;11.83;;;5.70;;
5412;SDS011;2729;50.056;8.678;2022-11-28T00:51:33;10.10;;;5.03;;
5412;SDS011;2729;50.056;8.678;2022-11-28T00:54:01;8.07;;;5.43;;
5412;SDS011;2729;50.056;8.678;2022-11-28T00:56:33;6.30;;;4.50;;
5412;SDS011;2729;50.056;8.678;2022-11-28T00:59:00;5.40;;;4.53;;
5412;SDS011;2729;50.056;8.678;2022-11-28T01:01:28;5.50;;;4.90;;
5412;SDS011;2729;50.056;8.678;2022-11-28T01:03:57;11.30;;;5.23;;
5412;SDS011;2729;50.056;8.678;2022-11-28T01:06:25;6.13;;;4.60;;
5412;SDS011;2729;50.056;8.678;2022-11-28T01:08:53;9.03;;;5.03;;
5412;SDS011;2729;50.056;8.678;2022-11-28T01:11:20;7.60;;;5.70;;
5412;SDS011;2729;50.056;8.678;2022-11-28T01:13:46;11.77;;;5.20;;
5412;SDS011;2729;50.056;8.678;2022-11-28T01:16:13;7.07;;;4.37;;
5412;SDS011;2729;50.056;8.678;2022-11-28T01:18:39;6.30;;;4.70;;
5412;SDS011;2729;50.056;8.678;2022-11-28T01:21:05;4.87;;;4.37;;
5412;SDS011;2729;50.056;8.678;2022-11-28T01:23:32;6.60;;;4.40;;
5412;SDS011;2729;50.056;8.678;2022-11-28T01:25:59;7.20;;;5.90;;
5412;SDS011;2729;50.056;8.678;2022-11-28T01:28:26;8.30;;;5.20;;
5412;SDS011;2729;50.056;8.678;2022-11-28T01:30:52;7.97;;;5.20;;
5412;SDS011;2729;50.056;8.678;2022-11-28T01:33:18;8.50;;;4.20;;
5412;SDS011;2729;50.056;8.678;2022-11-28T01:35:56;5.90;;;4.60;;
5412;SDS011;2729;50.056;8.678;2022-11-28T01:38:23;6.50;;;4.30;;
5412;SDS011;2729;50.056;8.678;2022-11-28T01:40:50;11.20;;;5.83;;
5412;SDS011;2729;50.056;8.678;2022-11-28T01:43:17;4.83;;;4.10;;
5412;SDS011;2729;50.056;8.678;2022-11-28T01:45:43;7.83;;;5.00;;
5412;SDS011;2729;50.056;8.678;2022-11-28T01:48:10;8.13;;;4.87;;
5412;SDS011;2729;50.056;8.678;2022-11-28T01:50:40;15.27;;;7.03;;
5412;SDS011;2729;50.056;8.678;2022-11-28T01:53:10;10.20;;;5.93;;
5412;SDS011;2729;50.056;8.678;2022-11-28T01:58:35;8.73;;;5.83;;
5412;SDS011;2729;50.056;8.678;2022-11-28T02:01:05;11.43;;;6.27;;
5412;SDS011;2729;50.056;8.678;2022-11-28T02:03:34;8.13;;;5.33;;
5412;SDS011;2729;50.056;8.678;2022-11-28T02:06:08;8.17;;;6.07;;
5412;SDS011;2729;50.056;8.678;2022-11-28T02:08:35;6.37;;;4.80;;
5412;SDS011;2729;50.056;8.678;2022-11-28T02:11:11;11.27;;;6.30;;
5412;SDS011;2729;50.056;8.678;2022-11-28T02:16:56;7.67;;;5.30;;
5412;SDS011;2729;50.056;8.678;2022-11-28T02:22:38;12.23;;;5.83;;
5412;SDS011;2729;50.056;8.678;2022-11-28T02:28:07;7.80;;;5.00;;
5412;SDS011;2729;50.056;8.678;2022-11-28T02:31:15;7.33;;;5.40;;
5412;SDS011;2729;50.056;8.678;2022-11-28T02:34:09;9.83;;;6.07;;
5412;SDS011;2729;50.056;8.678;2022-11-28T02:36:46;10.93;;;6.33;;
5412;SDS011;2729;50.056;8.678;2022-11-28T02:39:19;7.13;;;5.03;;
5412;SDS011;2729;50.056;8.678;2022-11-28T02:42:06;5.30;;;4.30;;
5412;SDS011;2729;50.056;8.678;2022-11-28T02:44:41;10.10;;;5.77;;
5412;SDS011;2729;50.056;8.678;2022-11-28T02:47:31;7.50;;;5.73;;
5412;SDS011;2729;50.056;8.678;2022-11-28T02:52:55;9.90;;;5.60;;
5412;SDS011;2729;50.056;8.678;2022-11-28T02:55:29;8.53;;;5.33;;
5412;SDS011;2729;50.056;8.678;2022-11-28T02:57:55;5.50;;;4.70;;
5412;SDS011;2729;50.056;8.678;2022-11-28T03:03:03;7.57;;;5.63;;
5412;SDS011;2729;50.056;8.678;2022-11-28T03:08:19;8.67;;;5.70;;
5412;SDS011;2729;50.056;8.678;2022-11-28T03:18:52;7.37;;;5.13;;
5412;SDS011;2729;50.056;8.678;2022-11-28T03:24:15;7.60;;;5.73;;
5412;SDS011;2729;50.056;8.678;2022-11-28T03:26:54;8.23;;;5.17;;
5412;SDS011;2729;50.056;8.678;2022-11-28T03:29:27;8.07;;;4.90;;
5412;SDS011;2729;50.056;8.678;2022-11-28T03:32:09;8.37;;;5.60;;
5412;SDS011;2729;50.056;8.678;2022-11-28T03:34:42;6.37;;;4.93;;
5412;SDS011;2729;50.056;8.678;2022-11-28T03:37:13;7.77;;;5.20;;
5412;SDS011;2729;50.056;8.678;2022-11-28T03:39:44;8.80;;;5.00;;
5412;SDS011;2729;50.056;8.678;2022-11-28T03:42:16;8.90;;;5.13;;
5412;SDS011;2729;50.056;8.678;2022-11-28T03:45:08;8.30;;;6.30;;
5412;SDS011;2729;50.056;8.678;2022-11-28T03:47:40;9.40;;;6.23;;
5412;SDS011;2729;50.056;8.678;2022-11-28T03:50:10;7.03;;;4.63;;
5412;SDS011;2729;50.056;8.678;2022-11-28T03:52:45;11.37;;;6.13;;
5412;SDS011;2729;50.056;8.678;2022-11-28T03:55:26;9.93;;;5.67;;
5412;SDS011;2729;50.056;8.678;2022-11-28T03:57:59;8.40;;;5.10;;
5412;SDS011;2729;50.056;8.678;2022-11-28T04:00:33;8.97;;;5.77;;
5412;SDS011;2729;50.056;8.678;2022-11-28T04:03:10;11.90;;;6.57;;
5412;SDS011;2729;50.056;8.678;2022-11-28T04:06:03;6.50;;;4.77;;
5412;SDS011;2729;50.056;8.678;2022-11-28T04:08:42;9.20;;;5.83;;
5412;SDS011;2729;50.056;8.678;2022-11-28T04:11:43;8.80;;;5.13;;
5412;SDS011;2729;50.056;8.678;2022-11-28T04:14:25;9.10;;;5.37;;
5412;SDS011;2729;50.056;8.678;2022-11-28T04:17:13;8.60;;;5.77;;
5412;SDS011;2729;50.056;8.678;2022-11-28T04:19:50;9.87;;;5.93;;
5412;SDS011;2729;50.056;8.678;2022-11-28T04:22:22;12.30;;;5.23;;
5412;SDS011;2729;50.056;8.678;2022-11-28T04:25:00;9.17;;;5.53;;
5412;SDS011;2729;50.056;8.678;2022-11-28T04:27:31;10.23;;;6.30;;
5412;SDS011;2729;50.056;8.678;2022-11-28T04:30:03;8.70;;;5.77;;
5412;SDS011;2729;50.056;8.678;2022-11-28T04:32:31;10.00;;;6.67;;
5412;SDS011;2729;50.056;8.678;2022-11-28T04:35:02;7.70;;;5.40;;
5412;SDS011;2729;50.056;8.678;2022-11-28T04:37:33;9.33;;;5.60;;
5412;SDS011;2729;50.056;8.678;2022-11-28T04:40:04;8.73;;;5.50;;
5412;SDS011;2729;50.056;8.678;2022-11-28T04:42:35;9.63;;;6.53;;
5412;SDS011;2729;50.056;8.678;2022-11-28T04:45:08;11.80;;;6.10;;
5412;SDS011;2729;50.056;8.678;2022-11-28T04:47:39;10.20;;;6.57;;
5412;SDS011;2729;50.056;8.678;2022-11-28T04:50:05;10.73;;;6.47;;
5412;SDS011;2729;50.056;8.678;2022-11-28T04:55:32;8.90;;;6.10;;
5412;SDS011;2729;50.056;8.678;2022-11-28T04:58:10;8.97;;;6.40;;
5412;SDS011;2729;50.056;8.678;2022-11-28T05:00:39;11.63;;;6.60;;
5412;SDS011;2729;50.056;8.678;2022-11-28T05:03:07;11.93;;;7.63;;
5412;SDS011;2729;50.056;8.678;2022-11-28T05:05:42;12.03;;;6.57;;
5412;SDS011;2729;50.056;8.678;2022-11-28T05:08:09;12.13;;;6.60;;
5412;SDS011;2729;50.056;8.678;2022-11-28T05:10:36;12.00;;;6.40;;
5412;SDS011;2729;50.056;8.678;2022-11-28T05:13:02;10.50;;;6.60;;
5412;SDS011;2729;50.056;8.678;2022-11-28T05:15:28;10.40;;;5.70;;
5412;SDS011;2729;50.056;8.678;2022-11-28T05:17:54;13.43;;;7.00;;
5412;SDS011;2729;50.056;8.678;2022-11-28T05:20:20;11.70;;;6.43;;
5412;SDS011;2729;50.056;8.678;2022-11-28T05:22:46;9.97;;;5.93;;
5412;SDS011;2729;50.056;8.678;2022-11-28T05:25:12;11.50;;;6.10;;
5412;SDS011;2729;50.056;8.678;2022-11-28T05:27:38;9.27;;;6.13;;
5412;SDS011;2729;50.056;8.678;2022-11-28T05:30:04;14.67;;;6.70;;
5412;SDS011;2729;50.056;8.678;2022-11-28T05:32:31;10.87;;;7.03;;
5412;SDS011;2729;50.056;8.678;2022-11-28T05:34:57;13.50;;;7.30;;
5412;SDS011;2729;50.056;8.678;2022-11-28T05:37:24;9.70;;;6.53;;
5412;SDS011;2729;50.056;8.678;2022-11-28T05:39:50;11.13;;;6.00;;
5412;SDS011;2729;50.056;8.678;2022-11-28T05:42:16;10.77;;;6.43;;
5412;SDS011;2729;50.056;8.678;2022-11-28T05:44:42;12.50;;;6.60;;
5412;SDS011;2729;50.056;8.678;2022-11-28T05:47:08;10.70;;;6.43;;
5412;SDS011;2729;50.056;8.678;2022-11-28T05:49:34;11.40;;;7.20;;
5412;SDS011;2729;50.056;8.678;2022-11-28T05:52:00;10.50;;;6.30;;
5412;SDS011;2729;50.056;8.678;2022-11-28T05:54:26;13.70;;;6.77;;
5412;SDS011;2729;50.056;8.678;2022-11-28T05:56:52;12.50;;;7.00;;
5412;SDS011;2729;50.056;8.678;2022-11-28T05:59:18;12.60;;;6.70;;
5412;SDS011;2729;50.056;8.678;2022-11-28T06:01:44;10.40;;;5.77;;
5412;SDS011;2729;50.056;8.678;2022-11-28T06:04:10;10.67;;;6.93;;
5412;SDS011;2729;50.056;8.678;2022-11-28T06:06:36;11.83;;;6.73;;
5412;SDS011;2729;50.056;8.678;2022-11-28T06:09:02;13.47;;;7.77;;
5412;SDS011;2729;50.056;8.678;2022-11-28T06:11:29;10.07;;;6.47;;
5412;SDS011;2729;50.056;8.678;2022-11-28T06:13:56;13.63;;;7.50;;
5412;SDS011;2729;50.056;8.678;2022-11-28T06:16:23;12.33;;;7.17;;
5412;SDS011;2729;50.056;8.678;2022-11-28T06:18:51;12.73;;;7.33;;
5412;SDS011;2729;50.056;8.678;2022-11-28T06:21:19;13.47;;;7.63;;
5412;SDS011;2729;50.056;8.678;2022-11-28T06:23:46;10.30;;;6.50;;
5412;SDS011;2729;50.056;8.678;2022-11-28T06:26:13;10.57;;;7.33;;
5412;SDS011;2729;50.056;8.678;2022-11-28T06:28:41;10.30;;;7.30;;
5412;SDS011;2729;50.056;8.678;2022-11-28T06:31:15;12.93;;;6.90;;
5412;SDS011;2729;50.056;8.678;2022-11-28T06:33:45;9.77;;;6.60;;
5412;SDS011;2729;50.056;8.678;2022-11-28T06:36:13;13.70;;;7.40;;
5412;SDS011;2729;50.056;8.678;2022-11-28T06:38:40;13.23;;;7.17;;
5412;SDS011;2729;50.056;8.678;2022-11-28T06:41:08;10.17;;;6.67;;
5412;SDS011;2729;50.056;8.678;2022-11-28T06:43:35;13.63;;;7.00;;
5412;SDS011;2729;50.056;8.678;2022-11-28T06:46:02;12.37;;;7.17;;
5412;SDS011;2729;50.056;8.678;2022-11-28T06:48:28;14.10;;;7.60;;
5412;SDS011;2729;50.056;8.678;2022-11-28T06:51:00;11.50;;;6.50;;
5412;SDS011;2729;50.056;8.678;2022-11-28T06:53:27;11.37;;;6.97;;
5412;SDS011;2729;50.056;8.678;2022-11-28T06:55:53;10.57;;;6.90;;
5412;SDS011;2729;50.056;8.678;2022-11-28T06:58:19;10.93;;;6.40;;
5412;SDS011;2729;50.056;8.678;2022-11-28T07:00:45;11.67;;;6.53;;
5412;SDS011;2729;50.056;8.678;2022-11-28T07:03:11;12.17;;;7.87;;
5412;SDS011;2729;50.056;8.678;2022-11-28T07:05:38;10.03;;;6.90;;
5412;SDS011;2729;50.056;8.678;2022-11-28T07:08:04;11.33;;;6.43;;
5412;SDS011;2729;50.056;8.678;2022-11-28T07:10:30;13.77;;;6.83;;
5412;SDS011;2729;50.056;8.678;2022-11-28T07:12:58;10.27;;;6.57;;
5412;SDS011;2729;50.056;8.678;2022-11-28T07:15:25;9.27;;;6.10;;
5412;SDS011;2729;50.056;8.678;2022-11-28T07:17:52;14.90;;;7.40;;
5412;SDS011;2729;50.056;8.678;2022-11-28T07:20:18;12.97;;;7.57;;
5412;SDS011;2729;50.056;8.678;2022-11-28T07:22:46;16.30;;;7.90;;
5412;SDS011;2729;50.056;8.678;2022-11-28T07:25:12;16.57;;;8.40;;
5412;SDS011;2729;50.056;8.678;2022-11-28T07:27:42;15.53;;;7.90;;
5412;SDS011;2729;50.056;8.678;2022-11-28T07:30:08;14.17;;;8.13;;
5412;SDS011;2729;50.056;8.678;2022-11-28T07:32:37;13.00;;;7.30;;
5412;SDS011;2729;50.056;8.678;2022-11-28T07:35:05;13.43;;;7.47;;
5412;SDS011;2729;50.056;8.678;2022-11-28T07:37:32;13.67;;;7.47;;
5412;SDS011;2729;50.056;8.678;2022-11-28T07:39:59;11.07;;;7.20;;
5412;SDS011;2729;50.056;8.678;2022-11-28T07:42:26;13.93;;;8.23;;
5412;SDS011;2729;50.056;8.678;2022-11-28T07:45:02;11.17;;;7.03;;
5412;SDS011;2729;50.056;8.678;2022-11-28T07:47:29;13.13;;;8.37;;
5412;SDS011;2729;50.056;8.678;2022-11-28T07:49:55;14.10;;;6.93;;
5412;SDS011;2729;50.056;8.678;2022-11-28T07:52:21;13.47;;;7.90;;
5412;SDS011;2729;50.056;8.678;2022-11-28T07:54:47;17.13;;;8.27;;
5412;SDS011;2729;50.056;8.678;2022-11-28T07:57:14;13.10;;;8.47;;
5412;SDS011;2729;50.056;8.678;2022-11-28T07:59:40;13.40;;;7.37;;
5412;SDS011;2729;50.056;8.678;2022-11-28T08:02:06;13.17;;;7.40;;
5412;SDS011;2729;50.056;8.678;2022-11-28T08:04:35;13.20;;;7.00;;
5412;SDS011;2729;50.056;8.678;2022-11-28T08:07:01;11.00;;;7.00;;
5412;SDS011;2729;50.056;8.678;2022-11-28T08:09:27;16.23;;;7.50;;
5412;SDS011;2729;50.056;8.678;2022-11-28T08:11:53;12.10;;;7.20;;
5412;SDS011;2729;50.056;8.678;2022-11-28T08:14:19;16.73;;;7.00;;
5412;SDS011;2729;50.056;8.678;2022-11-28T08:16:45;8.80;;;6.50;;
5412;SDS011;2729;50.056;8.678;2022-11-28T08:19:11;10.27;;;6.87;;
5412;SDS011;2729;50.056;8.678;2022-11-28T08:21:37;11.57;;;7.00;;
5412;SDS011;2729;50.056;8.678;2022-11-28T08:24:03;11.03;;;6.73;;
5412;SDS011;2729;50.056;8.678;2022-11-28T08:26:30;13.37;;;7.90;;
5412;SDS011;2729;50.056;8.678;2022-11-28T08:28:57;13.13;;;7.10;;
5412;SDS011;2729;50.056;8.678;2022-11-28T08:31:25;10.83;;;7.00;;
5412;SDS011;2729;50.056;8.678;2022-11-28T08:33:54;15.70;;;7.10;;
5412;SDS011;2729;50.056;8.678;2022-11-28T08:36:21;14.23;;;6.93;;
5412;SDS011;2729;50.056;8.678;2022-11-28T08:38:48;7.70;;;6.00;;
5412;SDS011;2729;50.056;8.678;2022-11-28T08:41:16;10.57;;;6.17;;
5412;SDS011;2729;50.056;8.678;2022-11-28T08:43:44;10.50;;;5.90;;
5412;SDS011;2729;50.056;8.678;2022-11-28T08:46:12;11.60;;;6.83;;
5412;SDS011;2729;50.056;8.678;2022-11-28T08:48:40;13.80;;;7.67;;
5412;SDS011;2729;50.056;8.678;2022-11-28T08:51:07;12.87;;;6.93;;
5412;SDS011;2729;50.056;8.678;2022-11-28T08:53:38;13.87;;;7.00;;
5412;SDS011;2729;50.056;8.678;2022-11-28T08:56:04;10.03;;;6.80;;
5412;SDS011;2729;50.056;8.678;2022-11-28T08:58:30;13.43;;;8.13;;
5412;SDS011;2729;50.056;8.678;2022-11-28T09:00:56;14.47;;;7.93;;
5412;SDS011;2729;50.056;8.678;2022-11-28T09:03:22;14.80;;;8.70;;
5412;SDS011;2729;50.056;8.678;2022-11-28T09:05:48;11.93;;;7.00;;
5412;SDS011;2729;50.056;8.678;2022-11-28T09:08:16;20.53;;;9.30;;
5412;SDS011;2729;50.056;8.678;2022-11-28T09:10:43;15.80;;;9.77;;
5412;SDS011;2729;50.056;8.678;2022-11-28T09:13:09;12.13;;;7.20;;
5412;SDS011;2729;50.056;8.678;2022-11-28T09:15:40;15.23;;;8.33;;
5412;SDS011;2729;50.056;8.678;2022-11-28T09:18:07;10.50;;;6.60;;
5412;SDS011;2729;50.056;8.678;2022-11-28T09:20:34;13.63;;;7.10;;
5412;SDS011;2729;50.056;8.678;2022-11-28T09:23:00;14.50;;;8.40;;
5412;SDS011;2729;50.056;8.678;2022-11-28T09:25:26;11.87;;;6.70;;
5412;SDS011;2729;50.056;8.678;2022-11-28T09:27:52;12.50;;;7.57;;
5412;SDS011;2729;50.056;8.678;2022-11-28T09:30:18;13.00;;;7.00;;
5412;SDS011;2729;50.056;8.678;2022-11-28T09:32:50;11.70;;;7.73;;
5412;SDS011;2729;50.056;8.678;2022-11-28T09:35:16;14.67;;;7.97;;
5412;SDS011;2729;50.056;8.678;2022-11-28T09:37:43;12.60;;;6.83;;
5412;SDS011;2729;50.056;8.678;2022-11-28T09:40:16;11.73;;;6.93;;
5412;SDS011;2729;50.056;8.678;2022-11-28T09:42:48;13.73;;;7.63;;
5412;SDS011;2729;50.056;8.678;2022-11-28T09:45:23;10.63;;;6.27;;
5412;SDS011;2729;50.056;8.678;2022-11-28T09:47:50;11.60;;;6.83;;
5412;SDS011;2729;50.056;8.678;2022-11-28T09:50:23;12.43;;;7.40;;
5412;SDS011;2729;50.056;8.678;2022-11-28T09:55:48;10.43;;;6.73;;
5412;SDS011;2729;50.056;8.678;2022-11-28T09:58:31;13.03;;;7.10;;
5412;SDS011;2729;50.056;8.678;2022-11-28T10:01:24;13.00;;;7.40;;
5412;SDS011;2729;50.056;8.678;2022-11-28T10:04:04;10.03;;;7.40;;
5412;SDS011;2729;50.056;8.678;2022-11-28T10:06:45;11.87;;;7.00;;
5412;SDS011;2729;50.056;8.678;2022-11-28T10:09:33;11.13;;;6.00;;
5412;SDS011;2729;50.056;8.678;2022-11-28T10:12:21;12.40;;;7.20;;
5412;SDS011;2729;50.056;8.678;2022-11-28T10:20:23;10.77;;;6.47;;
5412;SDS011;2729;50.056;8.678;2022-11-28T10:22:53;12.80;;;7.20;;
5412;SDS011;2729;50.056;8.678;2022-11-28T10:25:25;14.13;;;6.70;;
5412;SDS011;2729;50.056;8.678;2022-11-28T10:27:55;12.00;;;6.60;;
5412;SDS011;2729;50.056;8.678;2022-11-28T10:30:23;9.13;;;6.80;;
5412;SDS011;2729;50.056;8.678;2022-11-28T10:32:56;9.87;;;6.27;;
5412;SDS011;2729;50.056;8.678;2022-11-28T10:38:13;12.33;;;7.23;;
5412;SDS011;2729;50.056;8.678;2022-11-28T10:40:53;12.60;;;7.80;;
5412;SDS011;2729;50.056;8.678;2022-11-28T10:43:29;13.07;;;6.57;;
5412;SDS011;2729;50.056;8.678;2022-11-28T10:49:02;12.23;;;6.80;;
5412;SDS011;2729;50.056;8.678;2022-11-28T10:54:03;11.13;;;6.43;;
5412;SDS011;2729;50.056;8.678;2022-11-28T10:56:46;10.90;;;6.53;;
5412;SDS011;2729;50.056;8.678;2022-11-28T11:01:55;11.13;;;7.13;;
5412;SDS011;2729;50.056;8.678;2022-11-28T11:04:22;11.03;;;7.17;;
5412;SDS011;2729;50.056;8.678;2022-11-28T11:07:01;10.23;;;6.73;;
5412;SDS011;2729;50.056;8.678;2022-11-28T11:09:37;18.57;;;6.20;;
5412;SDS011;2729;50.056;8.678;2022-11-28T11:12:03;9.77;;;6.33;;
5412;SDS011;2729;50.056;8.678;2022-11-28T11:14:37;10.90;;;6.80;;
5412;SDS011;2729;50.056;8.678;2022-11-28T11:17:13;24.23;;;6.90;;
5412;SDS011;2729;50.056;8.678;2022-11-28T11:19:50;11.23;;;6.80;;
5412;SDS011;2729;50.056;8.678;2022-11-28T11:24:45;13.33;;;7.03;;
5412;SDS011;2729;50.056;8.678;2022-11-28T11:27:31;8.73;;;6.47;;
5412;SDS011;2729;50.056;8.678;2022-11-28T11:29:57;10.90;;;6.07;;
5412;SDS011;2729;50.056;8.678;2022-11-28T11:32:27;17.00;;;7.23;;
5412;SDS011;2729;50.056;8.678;2022-11-28T11:34:55;10.30;;;6.50;;
5412;SDS011;2729;50.056;8.678;2022-11-28T11:37:36;12.20;;;7.40;;
5412;SDS011;2729;50.056;8.678;2022-11-28T11:40:16;11.90;;;6.60;;
5412;SDS011;2729;50.056;8.678;2022-11-28T11:43:01;9.97;;;6.03;;
5412;SDS011;2729;50.056;8.678;2022-11-28T11:45:28;13.60;;;6.80;;
5412;SDS011;2729;50.056;8.678;2022-11-28T11:47:55;17.30;;;6.93;;
5412;SDS011;2729;50.056;8.678;2022-11-28T11:50:23;9.37;;;6.57;;
5412;SDS011;2729;50.056;8.678;2022-11-28T11:55:29;9.20;;;6.60;;
5412;SDS011;2729;50.056;8.678;2022-11-28T11:57:58;11.27;;;7.20;;
5412;SDS011;2729;50.056;8.678;2022-11-28T12:00:39;7.63;;;5.83;;
5412;SDS011;2729;50.056;8.678;2022-11-28T12:06:05;13.90;;;6.20;;
5412;SDS011;2729;50.056;8.678;2022-11-28T12:08:40;9.00;;;6.07;;
5412;SDS011;2729;50.056;8.678;2022-11-28T12:11:24;10.37;;;5.63;;
5412;SDS011;2729;50.056;8.678;2022-11-28T12:13:53;10.33;;;6.37;;
5412;SDS011;2729;50.056;8.678;2022-11-28T12:19:29;11.97;;;6.60;;
5412;SDS011;2729;50.056;8.678;2022-11-28T12:24:55;13.03;;;6.53;;
5412;SDS011;2729;50.056;8.678;2022-11-28T12:27:50;9.50;;;6.67;;
5412;SDS011;2729;50.056;8.678;2022-11-28T12:30:39;21.10;;;7.40;;
5412;SDS011;2729;50.056;8.678;2022-11-28T12:33:37;14.07;;;6.80;;
5412;SDS011;2729;50.056;8.678;2022-11-28T12:38:42;9.57;;;6.00;;
5412;SDS011;2729;50.056;8.678;2022-11-28T12:41:30;8.53;;;6.00;;
5412;SDS011;2729;50.056;8.678;2022-11-28T12:47:09;12.10;;;6.37;;
5412;SDS011;2729;50.056;8.678;2022-11-28T12:49:56;16.73;;;6.10;;
5412;SDS011;2729;50.056;8.678;2022-11-28T12:58:20;12.17;;;6.37;;
5412;SDS011;2729;50.056;8.678;2022-11-28T13:03:31;9.50;;;6.50;;
5412;SDS011;2729;50.056;8.678;2022-11-28T13:11:39;18.27;;;6.90;;
5412;SDS011;2729;50.056;8.678;2022-11-28T13:14:26;18.93;;;6.90;;
5412;SDS011;2729;50.056;8.678;2022-11-28T13:17:09;13.27;;;6.37;;
5412;SDS011;2729;50.056;8.678;2022-11-28T13:19:46;14.17;;;7.90;;
5412;SDS011;2729;50.056;8.678;2022-11-28T13:22:21;15.40;;;7.43;;
5412;SDS011;2729;50.056;8.678;2022-11-28T13:27:38;11.50;;;6.30;;
5412;SDS011;2729;50.056;8.678;2022-11-28T13:30:24;10.57;;;6.93;;
5412;SDS011;2729;50.056;8.678;2022-11-28T13:33:06;10.97;;;7.00;;
5412;SDS011;2729;50.056;8.678;2022-11-28T13:35:48;13.10;;;7.60;;
5412;SDS011;2729;50.056;8.678;2022-11-28T13:38:20;10.90;;;7.00;;
5412;SDS011;2729;50.056;8.678;2022-11-28T13:40:52;11.17;;;7.73;;
5412;SDS011;2729;50.056;8.678;2022-11-28T13:46:07;12.33;;;7.53;;
5412;SDS011;2729;50.056;8.678;2022-11-28T13:53:40;12.00;;;7.27;;
5412;SDS011;2729;50.056;8.678;2022-11-28T14:01:47;10.93;;;7.17;;
5412;SDS011;2729;50.056;8.678;2022-11-28T14:04:16;9.90;;;6.53;;
5412;SDS011;2729;50.056;8.678;2022-11-28T14:06:45;15.60;;;7.57;;
5412;SDS011;2729;50.056;8.678;2022-11-28T14:17:22;11.80;;;6.83;;
5412;SDS011;2729;50.056;8.678;2022-11-28T14:22:52;12.47;;;7.50;;
5412;SDS011;2729;50.056;8.678;2022-11-28T14:25:26;11.20;;;7.50;;
5412;SDS011;2729;50.056;8.678;2022-11-28T14:27:57;12.63;;;7.07;;
5412;SDS011;2729;50.056;8.678;2022-11-28T14:30:30;16.20;;;7.77;;
5412;SDS011;2729;50.056;8.678;2022-11-28T14:33:01;12.37;;;7.07;;
5412;SDS011;2729;50.056;8.678;2022-11-28T14:41:05;9.90;;;6.80;;
5412;SDS011;2729;50.056;8.678;2022-11-28T14:54:19;12.13;;;7.43;;
5412;SDS011;2729;50.056;8.678;2022-11-28T14:56:47;13.17;;;6.93;;
5412;SDS011;2729;50.056;8.678;2022-11-28T14:59:15;13.20;;;7.93;;
5412;SDS011;2729;50.056;8.678;2022-11-28T15:02:01;14.00;;;6.63;;
5412;SDS011;2729;50.056;8.678;2022-11-28T15:07:39;12.50;;;7.67;;
5412;SDS011;2729;50.056;8.678;2022-11-28T15:10:37;13.47;;;7.23;;
5412;SDS011;2729;50.056;8.678;2022-11-28T15:13:25;14.37;;;8.43;;
5412;SDS011;2729;50.056;8.678;2022-11-28T15:16:11;13.43;;;8.00;;
5412;SDS011;2729;50.056;8.678;2022-11-28T15:18:42;11.50;;;7.90;;
5412;SDS011;2729;50.056;8.678;2022-11-28T15:21:13;13.67;;;7.33;;
5412;SDS011;2729;50.056;8.678;2022-11-28T15:23:42;16.50;;;7.60;;
5412;SDS011;2729;50.056;8.678;2022-11-28T15:26:17;12.93;;;7.17;;
5412;SDS011;2729;50.056;8.678;2022-11-28T15:28:45;9.93;;;6.87;;
5412;SDS011;2729;50.056;8.678;2022-11-28T15:31:18;13.00;;;8.47;;
5412;SDS011;2729;50.056;8.678;2022-11-28T15:33:49;11.77;;;7.57;;
5412;SDS011;2729;50.056;8.678;2022-11-28T15:36:25;17.00;;;7.83;;
5412;SDS011;2729;50.056;8.678;2022-11-28T15:38:53;15.97;;;8.00;;
5412;SDS011;2729;50.056;8.678;2022-11-28T15:41:23;14.10;;;8.30;;
5412;SDS011;2729;50.056;8.678;2022-11-28T15:43:51;12.67;;;8.43;;
5412;SDS011;2729;50.056;8.678;2022-11-28T15:46:29;15.47;;;8.43;;
5412;SDS011;2729;50.056;8.678;2022-11-28T15:48:58;13.97;;;7.60;;
5412;SDS011;2729;50.056;8.678;2022-11-28T15:51:27;12.63;;;8.07;;
5412;SDS011;2729;50.056;8.678;2022-11-28T15:53:53;12.60;;;8.27;;
5412;SDS011;2729;50.056;8.678;2022-11-28T15:56:20;18.70;;;8.47;;
5412;SDS011;2729;50.056;8.678;2022-11-28T15:58:47;10.70;;;7.07;;
5412;SDS011;2729;50.056;8.678;2022-11-28T16:03:55;15.30;;;8.33;;
5412;SDS011;2729;50.056;8.678;2022-11-28T16:06:25;12.60;;;6.80;;
5412;SDS011;2729;50.056;8.678;2022-11-28T16:08:56;12.47;;;7.60;;
5412;SDS011;2729;50.056;8.678;2022-11-28T16:11:25;12.10;;;7.93;;
5412;SDS011;2729;50.056;8.678;2022-11-28T16:13:53;13.93;;;7.40;;
5412;SDS011;2729;50.056;8.678;2022-11-28T16:16:23;13.63;;;7.43;;
5412;SDS011;2729;50.056;8.678;2022-11-28T16:18:56;12.73;;;7.50;;
5412;SDS011;2729;50.056;8.678;2022-11-28T16:21:29;15.53;;;8.50;;
5412;SDS011;2729;50.056;8.678;2022-11-28T16:23:58;13.00;;;8.47;;
5412;SDS011;2729;50.056;8.678;2022-11-28T16:31:32;12.53;;;7.40;;
5412;SDS011;2729;50.056;8.678;2022-11-28T16:33:59;16.40;;;7.70;;
5412;SDS011;2729;50.056;8.678;2022-11-28T16:36:30;12.07;;;7.97;;
5412;SDS011;2729;50.056;8.678;2022-11-28T16:41:35;14.53;;;8.00;;
5412;SDS011;2729;50.056;8.678;2022-11-28T16:44:11;14.03;;;8.10;;
5412;SDS011;2729;50.056;8.678;2022-11-28T16:47:00;17.13;;;8.27;;
5412;SDS011;2729;50.056;8.678;2022-11-28T16:49:33;14.03;;;8.43;;
5412;SDS011;2729;50.056;8.678;2022-11-28T16:54:46;19.40;;;8.90;;
5412;SDS011;2729;50.056;8.678;2022-11-28T16:57:13;16.07;;;9.30;;
5412;SDS011;2729;50.056;8.678;2022-11-28T16:59:40;16.77;;;9.60;;
5412;SDS011;2729;50.056;8.678;2022-11-28T17:02:12;14.40;;;8.70;;
5412;SDS011;2729;50.056;8.678;2022-11-28T17:04:39;16.43;;;8.80;;
5412;SDS011;2729;50.056;8.678;2022-11-28T17:07:07;15.13;;;8.17;;
5412;SDS011;2729;50.056;8.678;2022-11-28T17:09:35;14.73;;;8.03;;
5412;SDS011;2729;50.056;8.678;2022-11-28T17:12:03;13.40;;;8.40;;
5412;SDS011;2729;50.056;8.678;2022-11-28T17:14:30;14.87;;;8.87;;
5412;SDS011;2729;50.056;8.678;2022-11-28T17:16:56;17.40;;;9.27;;
5412;SDS011;2729;50.056;8.678;2022-11-28T17:19:22;13.57;;;8.20;;
5412;SDS011;2729;50.056;8.678;2022-11-28T17:21:49;13.47;;;8.40;;
5412;SDS011;2729;50.056;8.678;2022-11-28T17:24:18;17.90;;;9.87;;
5412;SDS011;2729;50.056;8.678;2022-11-28T17:26:49;16.40;;;8.83;;
5412;SDS011;2729;50.056;8.678;2022-11-28T17:29:16;14.73;;;9.47;;
5412;SDS011;2729;50.056;8.678;2022-11-28T17:31:43;16.60;;;9.70;;
5412;SDS011;2729;50.056;8.678;2022-11-28T17:34:13;16.93;;;8.60;;
5412;SDS011;2729;50.056;8.678;2022-11-28T17:36:40;14.97;;;8.80;;
5412;SDS011;2729;50.056;8.678;2022-11-28T17:39:06;14.20;;;7.90;;
5412;SDS011;2729;50.056;8.678;2022-11-28T17:41:32;19.20;;;10.07;;
5412;SDS011;2729;50.056;8.678;2022-11-28T17:43:58;16.20;;;8.83;;
5412;SDS011;2729;50.056;8.678;2022-11-28T17:46:25;12.43;;;8.30;;
5412;SDS011;2729;50.056;8.678;2022-11-28T17:48:50;16.50;;;9.43;;
5412;SDS011;2729;50.056;8.678;2022-11-28T17:51:16;21.40;;;9.43;;
5412;SDS011;2729;50.056;8.678;2022-11-28T17:53:42;14.90;;;9.00;;